Wetterdaten: Woche 12.08.02 - 18.08.02 (KW33)
Datum Zeit Temperatur Luftfeuchte Luftdruck Regenmenge Wind Richtung Taupunkt Windchill
12.08.2002 00:00 15.6 C 92 % 1008.7 hPa 0.0 l/m 17.7 km/h (3 Bft) NW 14.3 C 15.6 C
12.08.2002 01:00 15.4 C 92 % 1008.7 hPa 0.0 l/m 13.7 km/h (3 Bft) NW 14.1 C 15.4 C
12.08.2002 02:00 15.4 C 89 % 1008.7 hPa 0.0 l/m 21.3 km/h (4 Bft) NW 13.5 C 15.4 C
12.08.2002 03:00 14.4 C 89 % 1008.9 hPa 0.0 l/m 3.1 km/h (1 Bft) NW 12.6 C 14.4 C
12.08.2002 04:00 14.6 C 87 % 1009.7 hPa 0.0 l/m 9.0 km/h (2 Bft) NW 12.5 C 14.6 C
12.08.2002 05:00 14.7 C 86 % 1009.7 hPa 0.0 l/m 18.4 km/h (3 Bft) NW 12.3 C 14.7 C
12.08.2002 06:00 14.6 C 85 % 1009.7 hPa 0.0 l/m 16.1 km/h (3 Bft) NW 12.1 C 14.6 C
12.08.2002 07:00 14.4 C 82 % 1010.7 hPa 0.0 l/m 11.1 km/h (2 Bft) NW 11.3 C 14.4 C
12.08.2002 08:00 14.8 C 79 % 1010.8 hPa 0.0 l/m 13.9 km/h (3 Bft) NW 11.2 C 14.8 C
12.08.2002 09:00 15.3 C 77 % 1010.8 hPa 0.0 l/m 18.9 km/h (3 Bft) NW 11.4 C 15.3 C
12.08.2002 10:00 15.9 C 74 % 1011.4 hPa 0.0 l/m 14.6 km/h (3 Bft) NW 11.3 C 15.9 C
12.08.2002 11:00 15.7 C 78 % 1011.8 hPa 0.0 l/m 11.7 km/h (2 Bft) NW 11.8 C 15.7 C
12.08.2002 12:00 16.2 C 76 % 1012.0 hPa 0.0 l/m 12.6 km/h (3 Bft) NW 12.0 C 16.2 C
12.08.2002 13:00 17.4 C 71 % 1012.8 hPa 0.0 l/m 21.3 km/h (4 Bft) NW 12.1 C 17.4 C
12.08.2002 14:00 18.6 C 65 % 1012.8 hPa 0.0 l/m 24.4 km/h (4 Bft) W-NW 11.9 C 18.6 C
12.08.2002 15:00 19.6 C 61 % 1012.8 hPa 0.0 l/m 27.8 km/h (4 Bft) NW 11.8 C 19.6 C
12.08.2002 16:00 19.2 C 65 % 1013.4 hPa 0.0 l/m 25.2 km/h (4 Bft) NW 12.4 C 19.2 C
12.08.2002 17:00 19.2 C 65 % 1013.9 hPa 0.0 l/m 17.8 km/h (3 Bft) NW 12.5 C 19.2 C
12.08.2002 18:00 19.3 C 64 % 1013.9 hPa 0.0 l/m 18.5 km/h (3 Bft) NW 12.2 C 19.3 C
12.08.2002 19:00 17.3 C 71 % 1014.8 hPa 0.0 l/m 24.7 km/h (4 Bft) NW 11.9 C 17.3 C
12.08.2002 20:00 16.6 C 75 % 1015.9 hPa 0.0 l/m 8.6 km/h (2 Bft) NW 12.0 C 16.6 C
12.08.2002 21:00 16.0 C 80 % 1016.9 hPa 0.0 l/m 13.0 km/h (3 Bft) NW 12.6 C 16.0 C
12.08.2002 22:00 15.6 C 83 % 1017.3 hPa 0.0 l/m 11.2 km/h (2 Bft) NW 12.8 C 15.6 C
12.08.2002 23:00 15.5 C 81 % 1018.0 hPa 0.0 l/m 5.3 km/h (1 Bft) W 12.3 C 15.5 C
13.08.2002 00:00 15.1 C 82 % 1018.0 hPa 0.0 l/m 1.5 km/h (1 Bft) S 12.1 C 15.1 C
13.08.2002 01:00 15.1 C 81 % 1018.0 hPa 0.0 l/m 1.0 km/h (0 Bft) SO 11.8 C 15.1 C
13.08.2002 02:00 14.8 C 86 % 1018.0 hPa 0.0 l/m 0.4 km/h (0 Bft) SO 12.4 C 14.8 C
13.08.2002 03:00 14.7 C 85 % 1018.0 hPa 0.0 l/m 1.3 km/h (1 Bft) SO 12.2 C 14.7 C
13.08.2002 04:00 14.4 C 85 % 1018.2 hPa 0.0 l/m 0.7 km/h (0 Bft) O-SO 11.9 C 14.4 C
13.08.2002 05:00 13.7 C 91 % 1019.0 hPa 0.0 l/m 2.0 km/h (1 Bft) O-SO 12.3 C 13.7 C
13.08.2002 06:00 13.3 C 94 % 1019.0 hPa 0.0 l/m 6.6 km/h (2 Bft) O-SO 12.3 C 13.3 C
13.08.2002 07:00 14.0 C 91 % 1019.0 hPa 0.0 l/m 4.0 km/h (1 Bft) O-SO 12.6 C 14.0 C
13.08.2002 08:00 15.9 C 83 % 1019.8 hPa 0.0 l/m 1.0 km/h (0 Bft) S-SO 13.1 C 15.9 C
13.08.2002 09:00 16.9 C 78 % 1020.0 hPa 0.0 l/m 2.5 km/h (1 Bft) W-NW 13.0 C 16.9 C
13.08.2002 10:00 18.1 C 70 % 1020.1 hPa 0.0 l/m 6.5 km/h (2 Bft) W-NW 12.5 C 18.1 C
13.08.2002 11:00 19.7 C 62 % 1019.5 hPa 0.0 l/m 6.1 km/h (2 Bft) NW 12.3 C 19.7 C
13.08.2002 12:00 20.9 C 56 % 1019.5 hPa 0.0 l/m 6.1 km/h (2 Bft) W-NW 11.9 C 20.9 C
13.08.2002 13:00 20.6 C 53 % 1020.0 hPa 0.0 l/m 10.0 km/h (2 Bft) NW 10.8 C 20.6 C
13.08.2002 14:00 22.1 C 48 % 1019.2 hPa 0.0 l/m 0.7 km/h (0 Bft) O-SO 10.5 C 22.1 C
13.08.2002 15:00 22.9 C 49 % 1019.0 hPa 0.0 l/m 7.8 km/h (2 Bft) O-SO 11.6 C 22.9 C
13.08.2002 16:00 22.9 C 46 % 1019.0 hPa 0.0 l/m 1.9 km/h (1 Bft) O-SO 10.7 C 22.9 C
13.08.2002 17:00 21.5 C 53 % 1019.0 hPa 0.0 l/m 0.5 km/h (0 Bft) O-NO 11.6 C 21.5 C
13.08.2002 18:00 20.6 C 55 % 1019.0 hPa 0.0 l/m 1.3 km/h (1 Bft) O-SO 11.1 C 20.6 C
13.08.2002 19:00 20.2 C 64 % 1019.6 hPa 0.0 l/m 3.3 km/h (1 Bft) O-SO 13.0 C 20.2 C
13.08.2002 20:00 17.7 C 71 % 1020.1 hPa 0.0 l/m 4.6 km/h (1 Bft) O-SO 12.4 C 17.7 C
13.08.2002 21:00 15.0 C 79 % 1020.2 hPa 0.0 l/m 0.6 km/h (0 Bft) O-SO 11.4 C 15.0 C
13.08.2002 22:00 13.8 C 86 % 1021.0 hPa 0.0 l/m 0.0 km/h (0 Bft) N 11.5 C 13.8 C
13.08.2002 23:00 12.9 C 90 % 1021.1 hPa 0.0 l/m 0.0 km/h (0 Bft) N 11.3 C 12.9 C
14.08.2002 00:00 11.7 C 95 % 1021.1 hPa 0.0 l/m 0.0 km/h (0 Bft) N 11.0 C 11.7 C
14.08.2002 01:00 11.0 C 98 % 1021.1 hPa 0.0 l/m 0.0 km/h (0 Bft) N 10.7 C 11.0 C
14.08.2002 02:00 10.6 C 99 % 1021.1 hPa 0.0 l/m 0.0 km/h (0 Bft) N 10.4 C 10.6 C
14.08.2002 03:00 10.2 C 100 % 1021.1 hPa 0.0 l/m 0.0 km/h (0 Bft) N 10.2 C 10.2 C
14.08.2002 04:00 10.0 C 100 % 1021.1 hPa 0.0 l/m 0.0 km/h (0 Bft) N 9.9 C 10.0 C
14.08.2002 05:00 9.8 C 100 % 1021.1 hPa 0.0 l/m 0.1 km/h (0 Bft) N 9.7 C 9.8 C
14.08.2002 06:00 9.5 C 100 % 1021.0 hPa 0.0 l/m 0.0 km/h (0 Bft) N 9.5 C 9.5 C
14.08.2002 07:00 10.4 C 99 % 1021.1 hPa 0.0 l/m 0.0 km/h (0 Bft) N 10.3 C 10.4 C
14.08.2002 08:00 12.1 C 96 % 1021.1 hPa 0.0 l/m 0.2 km/h (0 Bft) W-NW 11.5 C 12.1 C
14.08.2002 09:00 14.9 C 87 % 1020.5 hPa 0.0 l/m 1.2 km/h (1 Bft) W-NW 12.8 C 14.9 C
14.08.2002 10:00 18.6 C 71 % 1020.1 hPa 0.0 l/m 5.2 km/h (1 Bft) O-SO 13.1 C 18.6 C
14.08.2002 11:00 20.9 C 60 % 1020.0 hPa 0.0 l/m 13.0 km/h (3 Bft) O-SO 12.8 C 20.9 C
14.08.2002 12:00 22.3 C 53 % 1019.1 hPa 0.0 l/m 9.1 km/h (2 Bft) O-SO 12.2 C 22.3 C
14.08.2002 13:00 23.3 C 49 % 1019.0 hPa 0.0 l/m 10.9 km/h (2 Bft) O-NO 11.9 C 23.3 C
14.08.2002 14:00 24.5 C 46 % 1018.8 hPa 0.0 l/m 11.3 km/h (2 Bft) O 12.1 C 24.5 C
14.08.2002 15:00 24.9 C 47 % 1018.0 hPa 0.0 l/m 13.3 km/h (3 Bft) O-NO 12.7 C 24.9 C
14.08.2002 16:00 24.7 C 46 % 1018.0 hPa 0.0 l/m 9.9 km/h (2 Bft) O 12.4 C 24.7 C
14.08.2002 17:00 24.8 C 46 % 1018.0 hPa 0.0 l/m 10.9 km/h (2 Bft) O 12.2 C 24.8 C
14.08.2002 18:00 24.2 C 47 % 1018.0 hPa 0.0 l/m 15.7 km/h (3 Bft) O-SO 12.3 C 24.2 C
14.08.2002 19:00 23.0 C 51 % 1018.0 hPa 0.0 l/m 6.2 km/h (2 Bft) O-SO 12.3 C 23.0 C
14.08.2002 20:00 20.7 C 59 % 1018.0 hPa 0.0 l/m 0.1 km/h (0 Bft) N 12.3 C 20.7 C
14.08.2002 21:00 18.0 C 72 % 1018.0 hPa 0.0 l/m 1.1 km/h (0 Bft) O 12.7 C 18.0 C
14.08.2002 22:00 16.4 C 80 % 1018.0 hPa 0.0 l/m 0.2 km/h (0 Bft) O 12.9 C 16.4 C
14.08.2002 23:00 15.1 C 87 % 1018.0 hPa 0.0 l/m 0.0 km/h (0 Bft) N 12.9 C 15.1 C
15.08.2002 00:00 14.2 C 91 % 1018.0 hPa 0.0 l/m 0.0 km/h (0 Bft) N 12.8 C 14.2 C
15.08.2002 01:00 14.1 C 91 % 1018.0 hPa 0.0 l/m 0.0 km/h (0 Bft) N 12.6 C 14.1 C
15.08.2002 02:00 13.3 C 95 % 1018.0 hPa 0.0 l/m 0.0 km/h (0 Bft) N 12.5 C 13.3 C
15.08.2002 03:00 12.9 C 97 % 1018.0 hPa 0.0 l/m 0.4 km/h (0 Bft) SO 12.4 C 12.9 C
15.08.2002 04:00 12.5 C 99 % 1018.0 hPa 0.0 l/m 1.4 km/h (1 Bft) O-SO 12.4 C 12.5 C
15.08.2002 05:00 11.8 C 100 % 1017.5 hPa 0.0 l/m 1.8 km/h (1 Bft) O-SO 11.8 C 11.8 C
15.08.2002 06:00 11.5 C 100 % 1018.0 hPa 0.0 l/m 1.9 km/h (1 Bft) O-SO 11.5 C 11.5 C
15.08.2002 07:00 12.3 C 100 % 1018.0 hPa 0.0 l/m 0.0 km/h (0 Bft) N 12.2 C 12.3 C
15.08.2002 08:00 14.1 C 96 % 1018.0 hPa 0.0 l/m 0.7 km/h (0 Bft) SO 13.5 C 14.1 C
15.08.2002 09:00 16.9 C 83 % 1018.0 hPa 0.0 l/m 4.2 km/h (1 Bft) O-SO 14.0 C 16.9 C
15.08.2002 10:00 19.4 C 71 % 1018.0 hPa 0.0 l/m 8.6 km/h (2 Bft) O-SO 14.0 C 19.4 C
15.08.2002 11:00 21.4 C 63 % 1017.5 hPa 0.0 l/m 11.4 km/h (2 Bft) O-SO 14.1 C 21.4 C
15.08.2002 12:00 23.3 C 57 % 1017.0 hPa 0.0 l/m 11.2 km/h (2 Bft) O-SO 14.2 C 23.3 C
15.08.2002 13:00 24.5 C 52 % 1017.0 hPa 0.0 l/m 11.5 km/h (2 Bft) O-SO 13.8 C 24.5 C
15.08.2002 14:00 25.7 C 44 % 1016.8 hPa 0.0 l/m 16.2 km/h (3 Bft) O-SO 12.4 C 25.7 C
15.08.2002 15:00 26.7 C 43 % 1015.9 hPa 0.0 l/m 14.6 km/h (3 Bft) O-SO 13.2 C 26.7 C
15.08.2002 16:00 26.9 C 45 % 1015.9 hPa 0.0 l/m 13.6 km/h (3 Bft) O-SO 14.0 C 26.9 C
15.08.2002 17:00 26.7 C 46 % 1015.9 hPa 0.0 l/m 14.5 km/h (3 Bft) O-SO 14.2 C 26.7 C
15.08.2002 18:00 26.0 C 49 % 1015.9 hPa 0.0 l/m 10.7 km/h (2 Bft) O-SO 14.4 C 26.0 C
15.08.2002 19:00 24.8 C 52 % 1015.9 hPa 0.0 l/m 7.2 km/h (2 Bft) O-SO 14.4 C 24.8 C
15.08.2002 20:00 22.1 C 61 % 1016.2 hPa 0.0 l/m 2.0 km/h (1 Bft) O-SO 14.2 C 22.1 C
15.08.2002 21:00 18.5 C 75 % 1017.0 hPa 0.0 l/m 0.4 km/h (0 Bft) O-SO 14.1 C 18.5 C
15.08.2002 22:00 17.1 C 82 % 1017.0 hPa 0.0 l/m 2.0 km/h (1 Bft) O-SO 14.1 C 17.1 C
15.08.2002 23:00 15.9 C 90 % 1017.0 hPa 0.0 l/m 0.0 km/h (0 Bft) N 14.3 C 15.9 C
16.08.2002 00:00 15.0 C 94 % 1018.0 hPa 0.0 l/m 1.0 km/h (0 Bft) O-SO 14.1 C 15.0 C
16.08.2002 01:00 14.2 C 96 % 1018.0 hPa 0.0 l/m 0.9 km/h (0 Bft) O-SO 13.6 C 14.2 C
16.08.2002 02:00 13.5 C 98 % 1018.0 hPa 0.0 l/m 0.6 km/h (0 Bft) O-SO 13.2 C 13.5 C
16.08.2002 03:00 13.2 C 99 % 1018.0 hPa 0.0 l/m 0.0 km/h (0 Bft) N 13.0 C 13.2 C
16.08.2002 04:00 12.4 C 100 % 1018.0 hPa 0.0 l/m 0.8 km/h (0 Bft) O-SO 12.4 C 12.4 C
16.08.2002 05:00 12.0 C 99 % 1018.0 hPa 0.0 l/m 0.0 km/h (0 Bft) N 11.9 C 12.0 C
16.08.2002 06:00 11.3 C 100 % 1018.0 hPa 0.0 l/m 0.0 km/h (0 Bft) N 11.3 C 11.3 C
16.08.2002 07:00 12.1 C 100 % 1018.0 hPa 0.0 l/m 0.0 km/h (0 Bft) N 12.0 C 12.1 C
16.08.2002 08:00 13.8 C 97 % 1018.0 hPa 0.0 l/m 0.0 km/h (0 Bft) N 13.3 C 13.8 C
16.08.2002 09:00 16.4 C 87 % 1018.0 hPa 0.0 l/m 0.3 km/h (0 Bft) NW 14.1 C 16.4 C
16.08.2002 10:00 19.8 C 69 % 1018.0 hPa 0.0 l/m 0.4 km/h (0 Bft) O-SO 13.8 C 19.8 C
16.08.2002 11:00 22.3 C 60 % 1018.0 hPa 0.0 l/m 1.1 km/h (0 Bft) N 14.1 C 22.3 C
16.08.2002 12:00 24.4 C 51 % 1018.0 hPa 0.0 l/m 6.8 km/h (2 Bft) O-SO 13.7 C 24.4 C
16.08.2002 13:00 25.7 C 47 % 1017.7 hPa 0.0 l/m 9.5 km/h (2 Bft) O-SO 13.7 C 25.7 C
16.08.2002 14:00 26.9 C 44 % 1017.0 hPa 0.0 l/m 6.9 km/h (2 Bft) O-SO 13.5 C 26.9 C
16.08.2002 15:00 27.6 C 43 % 1017.0 hPa 0.0 l/m 12.8 km/h (3 Bft) O-SO 14.0 C 27.6 C
16.08.2002 16:00 27.9 C 43 % 1016.1 hPa 0.0 l/m 13.6 km/h (3 Bft) O-SO 14.0 C 27.9 C
16.08.2002 17:00 27.6 C 44 % 1015.9 hPa 0.0 l/m 11.4 km/h (2 Bft) O-SO 14.2 C 27.6 C
16.08.2002 18:00 27.0 C 46 % 1015.9 hPa 0.0 l/m 8.7 km/h (2 Bft) O-SO 14.5 C 27.0 C
16.08.2002 19:00 25.8 C 52 % 1015.9 hPa 0.0 l/m 5.5 km/h (1 Bft) O-SO 15.2 C 25.8 C
16.08.2002 20:00 22.5 C 65 % 1015.9 hPa 0.0 l/m 2.5 km/h (1 Bft) O-SO 15.5 C 22.5 C
16.08.2002 21:00 19.5 C 76 % 1015.9 hPa 0.0 l/m 0.2 km/h (0 Bft) O-SO 15.1 C 19.5 C
16.08.2002 22:00 17.8 C 84 % 1016.3 hPa 0.0 l/m 0.1 km/h (0 Bft) O-SO 15.1 C 17.8 C
16.08.2002 23:00 16.7 C 89 % 1017.0 hPa 0.0 l/m 0.9 km/h (0 Bft) O-SO 14.8 C 16.7 C
17.08.2002 00:00 16.2 C 93 % 1017.0 hPa 0.0 l/m 0.0 km/h (0 Bft) N 15.0 C 16.2 C
17.08.2002 01:00 15.5 C 95 % 1017.0 hPa 0.0 l/m 0.5 km/h (0 Bft) O-SO 14.7 C 15.5 C
17.08.2002 02:00 15.0 C 96 % 1017.0 hPa 0.0 l/m 0.0 km/h (0 Bft) N 14.4 C 15.0 C
17.08.2002 03:00 14.2 C 98 % 1017.0 hPa 0.0 l/m 0.9 km/h (0 Bft) O-SO 14.0 C 14.2 C
17.08.2002 04:00 13.6 C 99 % 1016.8 hPa 0.0 l/m 0.1 km/h (0 Bft) N 13.5 C 13.6 C
17.08.2002 05:00 13.3 C 100 % 1017.0 hPa 0.0 l/m 0.8 km/h (0 Bft) O-SO 13.3 C 13.3 C
17.08.2002 06:00 12.7 C 100 % 1016.4 hPa 0.0 l/m 0.0 km/h (0 Bft) N 12.7 C 12.7 C
17.08.2002 07:00 13.3 C 98 % 1016.2 hPa 0.0 l/m 0.0 km/h (0 Bft) N 13.0 C 13.3 C
17.08.2002 08:00 14.8 C 96 % 1016.4 hPa 0.0 l/m 0.0 km/h (0 Bft) N 14.2 C 14.8 C
17.08.2002 09:00 17.3 C 84 % 1017.0 hPa 0.0 l/m 0.3 km/h (0 Bft) SO 14.5 C 17.3 C
17.08.2002 10:00 20.7 C 68 % 1016.6 hPa 0.0 l/m 1.1 km/h (1 Bft) O-SO 14.6 C 20.7 C
17.08.2002 11:00 23.5 C 59 % 1015.9 hPa 0.0 l/m 7.0 km/h (2 Bft) O-SO 15.1 C 23.5 C
17.08.2002 12:00 25.4 C 51 % 1015.9 hPa 0.0 l/m 13.8 km/h (3 Bft) O-SO 14.6 C 25.4 C
17.08.2002 13:00 26.5 C 46 % 1015.0 hPa 0.0 l/m 10.5 km/h (2 Bft) O-SO 13.7 C 26.5 C
17.08.2002 14:00 27.4 C 42 % 1014.9 hPa 0.0 l/m 9.6 km/h (2 Bft) O-SO 13.4 C 27.4 C
17.08.2002 15:00 28.2 C 41 % 1014.2 hPa 0.0 l/m 10.1 km/h (2 Bft) O-SO 13.8 C 28.2 C
17.08.2002 16:00 28.2 C 40 % 1013.9 hPa 0.0 l/m 5.5 km/h (1 Bft) O-SO 13.3 C 28.2 C
17.08.2002 17:00 28.2 C 43 % 1013.7 hPa 0.0 l/m 10.1 km/h (2 Bft) O-SO 14.3 C 28.2 C
17.08.2002 18:00 27.5 C 44 % 1012.8 hPa 0.0 l/m 9.5 km/h (2 Bft) O-SO 14.2 C 27.5 C
17.08.2002 19:00 26.1 C 49 % 1012.8 hPa 0.0 l/m 5.6 km/h (1 Bft) O-SO 14.5 C 26.1 C
17.08.2002 20:00 22.9 C 59 % 1013.2 hPa 0.0 l/m 4.1 km/h (1 Bft) O-SO 14.5 C 22.9 C
17.08.2002 21:00 19.7 C 73 % 1013.9 hPa 0.0 l/m 1.0 km/h (0 Bft) O-SO 14.6 C 19.7 C
17.08.2002 22:00 18.2 C 81 % 1013.9 hPa 0.0 l/m 1.3 km/h (1 Bft) O-SO 14.8 C 18.2 C
17.08.2002 23:00 17.4 C 85 % 1013.9 hPa 0.0 l/m 3.2 km/h (1 Bft) O-SO 14.8 C 17.4 C
18.08.2002 00:00 16.1 C 90 % 1013.9 hPa 0.0 l/m 1.0 km/h (0 Bft) O-SO 14.5 C 16.1 C
18.08.2002 01:00 15.5 C 95 % 1013.9 hPa 0.0 l/m 2.4 km/h (1 Bft) O-SO 14.6 C 15.5 C
18.08.2002 02:00 15.1 C 96 % 1013.9 hPa 0.0 l/m 2.4 km/h (1 Bft) O-SO 14.3 C 15.1 C
18.08.2002 03:00 14.3 C 98 % 1013.9 hPa 0.0 l/m 1.6 km/h (1 Bft) O-SO 13.9 C 14.3 C
18.08.2002 04:00 13.8 C 99 % 1013.9 hPa 0.0 l/m 1.8 km/h (1 Bft) O-SO 13.6 C 13.8 C
18.08.2002 05:00 13.3 C 99 % 1013.9 hPa 0.0 l/m 1.1 km/h (0 Bft) O-SO 13.2 C 13.3 C
18.08.2002 06:00 12.9 C 100 % 1013.9 hPa 0.0 l/m 1.5 km/h (1 Bft) O-SO 12.9 C 12.9 C
18.08.2002 07:00 13.8 C 100 % 1014.1 hPa 0.0 l/m 0.0 km/h (0 Bft) N 13.8 C 13.8 C
18.08.2002 08:00 15.3 C 92 % 1014.9 hPa 0.0 l/m 0.0 km/h (0 Bft) N 14.0 C 15.3 C
18.08.2002 09:00 17.2 C 85 % 1014.1 hPa 0.0 l/m 0.0 km/h (0 Bft) N 14.6 C 17.2 C
18.08.2002 10:00 20.1 C 76 % 1013.9 hPa 0.0 l/m 0.1 km/h (0 Bft) N 15.6 C 20.1 C
18.08.2002 11:00 22.8 C 65 % 1013.9 hPa 0.0 l/m 0.8 km/h (0 Bft) W 15.9 C 22.8 C
18.08.2002 12:00 24.7 C 58 % 1013.9 hPa 0.0 l/m 3.3 km/h (1 Bft) O-SO 16.0 C 24.7 C
18.08.2002 13:00 26.3 C 49 % 1013.8 hPa 0.0 l/m 2.3 km/h (1 Bft) O-SO 14.7 C 26.3 C
18.08.2002 14:00 27.9 C 41 % 1012.8 hPa 0.0 l/m 4.7 km/h (1 Bft) O-SO 13.6 C 27.9 C
18.08.2002 15:00 29.4 C 39 % 1012.8 hPa 0.0 l/m 2.0 km/h (1 Bft) O 14.1 C 29.4 C
18.08.2002 16:00 29.9 C 38 % 1012.8 hPa 0.0 l/m 2.6 km/h (1 Bft) O-SO 13.9 C 29.9 C
18.08.2002 17:00 29.5 C 40 % 1012.8 hPa 0.0 l/m 1.4 km/h (1 Bft) W-NW 14.3 C 29.5 C
18.08.2002 18:00 28.5 C 42 % 1012.8 hPa 0.0 l/m 1.8 km/h (1 Bft) W-NW 14.3 C 28.5 C
18.08.2002 19:00 27.3 C 46 % 1012.8 hPa 0.0 l/m 0.0 km/h (0 Bft) N 14.6 C 27.3 C
18.08.2002 20:00 23.3 C 63 % 1013.3 hPa 0.0 l/m 4.3 km/h (1 Bft) O-SO 15.8 C 23.3 C
18.08.2002 21:00 19.8 C 72 % 1013.9 hPa 0.0 l/m 3.2 km/h (1 Bft) O-SO 14.6 C 19.8 C
18.08.2002 22:00 18.2 C 78 % 1014.3 hPa 0.0 l/m 2.6 km/h (1 Bft) O-SO 14.4 C 18.2 C
18.08.2002 23:00 16.7 C 87 % 1014.9 hPa 0.0 l/m 1.1 km/h (1 Bft) O-SO 14.6 C 16.7 C
Min-Datum _ 14.08.02 18.08.02 12.08.02 - 12.08.02 - 13.08.02 14.08.02
_ Min-Zeit 06:11 16:48 00:00 - 03:15 - 14:25 06:11
Minimum _ 9.1 C 31 % 1008.7 hPa - 0.0 km/h (0 Bft) - 8.9 C 9.1 C
Max-Datum _ 18.08.02 14.08.02 14.08.02 12.08.02 12.08.02 - 18.08.02 18.08.02
_ Max-Zeit 16:33 02:59 08:35 00:00 19:15 - 20:03 16:33
Maximum _ 30.3 C 100 % 1021.2 hPa 0.0 l/m 40.9 km/h
NW (6 Bft)
- 17.1 C 30.3 C
Durchschnitt _ 18.5 C 74 % 1016.4 hPa #0.0 l/m 5.4 km/h (1 Bft) O-SO 13.1 C 18.5 C

Durchschnitt Minimum Temp.17.6 C
Durchschnitt Maximum Temp.19.5 C
© Kaiko 2002